SWA1721 TNCM-KMCO
Flight info
| Callsign | SWA1721 |
|---|---|
| Flight time | 2h 59m |
| Altitude | 38000 |
| Route | PJM B520 LARPP Y318 DONQU Y185 RENAH DCT MUVOD BR55V RAJAY DCT OCTAL MUNGI1 |
| Aircraft | B737/M-SADE2E3GIJ4RWZ/LB1D1 |
Departure
| Time | 2026-04-21 01:33 |
|---|---|
| Airport | Princess Juliana International Airport (TNCM) |
Arrival
| Time | 2026-04-21 04:33 |
|---|---|
| Airport | Orlando International Airport (KMCO) |
| Time | Latitude | Longitude | Altitude | Speed | Heading |
|---|---|---|---|---|---|
| 2026-04-21 00:57 | 18.04310 | -63.11498 | 25 ft | 0 kts | 351° |
| 2026-04-21 01:24 | 18.04295 | -63.11495 | 24 ft | 2 kts | 351° |
| 2026-04-21 01:24 | 18.04280 | -63.11493 | 24 ft | 2 kts | 351° |
| 2026-04-21 01:24 | 18.04266 | -63.11491 | 24 ft | 2 kts | 351° |
| 2026-04-21 01:24 | 18.04251 | -63.11488 | 23 ft | 2 kts | 352° |
| 2026-04-21 01:25 | 18.04236 | -63.11486 | 23 ft | 2 kts | 351° |
| 2026-04-21 01:25 | 18.04227 | -63.11485 | 23 ft | 1 kts | 350° |
| 2026-04-21 01:25 | 18.04221 | -63.11482 | 23 ft | 1 kts | 289° |
| 2026-04-21 01:25 | 18.04221 | -63.11473 | 23 ft | 0 kts | 239° |
| 2026-04-21 01:26 | 18.04225 | -63.11469 | 23 ft | 0 kts | 225° |
| 2026-04-21 01:26 | 18.04227 | -63.11466 | 23 ft | 0 kts | 230° |
| 2026-04-21 01:29 | 18.04227 | -63.11467 | 23 ft | 0 kts | 230° |
| 2026-04-21 01:29 | 18.04211 | -63.11486 | 23 ft | 6 kts | 230° |
| 2026-04-21 01:30 | 18.04172 | -63.11538 | 23 ft | 12 kts | 232° |
| 2026-04-21 01:30 | 18.04118 | -63.11609 | 24 ft | 11 kts | 231° |
| 2026-04-21 01:30 | 18.04073 | -63.11673 | 25 ft | 11 kts | 242° |
| 2026-04-21 01:30 | 18.04053 | -63.11766 | 25 ft | 13 kts | 262° |
| 2026-04-21 01:31 | 18.04042 | -63.11852 | 26 ft | 9 kts | 262° |
| 2026-04-21 01:31 | 18.04026 | -63.11908 | 26 ft | 7 kts | 234° |
| 2026-04-21 01:31 | 18.03987 | -63.11958 | 25 ft | 10 kts | 218° |
| 2026-04-21 01:31 | 18.03942 | -63.11930 | 25 ft | 9 kts | 79° |
| 2026-04-21 01:32 | 18.03946 | -63.11909 | 25 ft | 0 kts | 82° |
| 2026-04-21 01:32 | 18.03952 | -63.11872 | 25 ft | 26 kts | 80° |
| 2026-04-21 01:32 | 18.04019 | -63.11418 | 21 ft | 96 kts | 81° |
| 2026-04-21 01:33 | 18.04145 | -63.10523 | 20 ft | 151 kts | 82° |
| 2026-04-21 01:33 | 18.04283 | -63.09408 | 574 ft | 154 kts | 84° |
| 2026-04-21 01:33 | 18.04009 | -63.08368 | 1237 ft | 154 kts | 129° |
| 2026-04-21 01:33 | 18.03046 | -63.07861 | 1658 ft | 171 kts | 169° |
| 2026-04-21 01:34 | 18.01839 | -63.07696 | 2147 ft | 182 kts | 169° |
| 2026-04-21 01:34 | 18.00495 | -63.07554 | 2447 ft | 207 kts | 172° |
| 2026-04-21 01:34 | 17.98965 | -63.07397 | 2753 ft | 233 kts | 173° |
| 2026-04-21 01:34 | 17.97321 | -63.07634 | 3283 ft | 253 kts | 203° |
| 2026-04-21 01:35 | 17.95984 | -63.08878 | 3822 ft | 271 kts | 239° |
| 2026-04-21 01:35 | 17.95543 | -63.10811 | 4554 ft | 278 kts | 275° |
| 2026-04-21 01:35 | 17.96152 | -63.12699 | 5361 ft | 280 kts | 301° |
| 2026-04-21 01:35 | 17.97084 | -63.14488 | 6201 ft | 284 kts | 295° |
| 2026-04-21 01:36 | 17.97797 | -63.16448 | 7053 ft | 288 kts | 290° |
| 2026-04-21 01:36 | 17.98431 | -63.18426 | 7896 ft | 292 kts | 289° |
| 2026-04-21 01:36 | 17.99072 | -63.20454 | 8742 ft | 295 kts | 289° |
| 2026-04-21 01:36 | 17.99703 | -63.22491 | 9676 ft | 300 kts | 289° |
| 2026-04-21 01:37 | 18.00349 | -63.24594 | 10623 ft | 306 kts | 288° |
| 2026-04-21 01:37 | 18.01012 | -63.26760 | 11087 ft | 328 kts | 288° |
| 2026-04-21 01:37 | 18.01742 | -63.29155 | 11390 ft | 355 kts | 288° |
| 2026-04-21 01:37 | 18.02514 | -63.31692 | 11765 ft | 378 kts | 288° |
| 2026-04-21 01:38 | 18.03338 | -63.34407 | 12256 ft | 397 kts | 288° |
| 2026-04-21 01:38 | 18.04179 | -63.37177 | 13013 ft | 406 kts | 288° |
| 2026-04-21 01:38 | 18.05036 | -63.40004 | 13838 ft | 413 kts | 288° |
| 2026-04-21 01:38 | 18.05916 | -63.42909 | 14682 ft | 419 kts | 289° |
| 2026-04-21 01:39 | 18.06797 | -63.45819 | 15508 ft | 424 kts | 289° |
| 2026-04-21 01:39 | 18.07692 | -63.48773 | 16315 ft | 429 kts | 289° |
| 2026-04-21 01:39 | 18.08592 | -63.51751 | 17097 ft | 434 kts | 289° |
| 2026-04-21 01:39 | 18.09520 | -63.54818 | 17873 ft | 439 kts | 289° |
| 2026-04-21 01:40 | 18.10440 | -63.57864 | 18614 ft | 444 kts | 289° |
| 2026-04-21 01:40 | 18.11377 | -63.60968 | 19344 ft | 449 kts | 289° |
| 2026-04-21 01:40 | 18.12320 | -63.64092 | 20053 ft | 453 kts | 289° |
| 2026-04-21 01:40 | 18.13193 | -63.67273 | 20735 ft | 459 kts | 285° |
| 2026-04-21 01:41 | 18.13804 | -63.70608 | 21415 ft | 464 kts | 281° |
| 2026-04-21 01:41 | 18.14330 | -63.73947 | 22063 ft | 468 kts | 281° |
| 2026-04-21 01:41 | 18.14884 | -63.77297 | 22689 ft | 472 kts | 282° |
| 2026-04-21 01:41 | 18.15465 | -63.80703 | 23303 ft | 476 kts | 282° |
| 2026-04-21 01:42 | 18.16045 | -63.84131 | 23904 ft | 480 kts | 282° |
| 2026-04-21 01:42 | 18.16627 | -63.87590 | 24488 ft | 483 kts | 282° |
| 2026-04-21 01:42 | 18.17211 | -63.91065 | 25059 ft | 487 kts | 282° |
| 2026-04-21 01:42 | 18.17800 | -63.94575 | 25616 ft | 490 kts | 283° |
| 2026-04-21 01:43 | 18.18395 | -63.98116 | 26150 ft | 494 kts | 283° |
| 2026-04-21 01:43 | 18.18992 | -64.01682 | 26795 ft | 493 kts | 283° |
| 2026-04-21 01:43 | 18.19580 | -64.05152 | 27669 ft | 487 kts | 284° |
| 2026-04-21 01:43 | 18.20382 | -64.08611 | 28367 ft | 482 kts | 290° |
| 2026-04-21 01:44 | 18.21471 | -64.11880 | 29052 ft | 476 kts | 296° |
| 2026-04-21 01:44 | 18.22952 | -64.14932 | 29729 ft | 469 kts | 304° |
| 2026-04-21 01:44 | 18.24664 | -64.17839 | 30404 ft | 465 kts | 306° |
| 2026-04-21 01:44 | 18.26370 | -64.20715 | 31033 ft | 462 kts | 306° |
| 2026-04-21 01:45 | 18.28034 | -64.23586 | 31642 ft | 460 kts | 306° |
| 2026-04-21 01:45 | 18.29674 | -64.26427 | 32226 ft | 457 kts | 306° |
| 2026-04-21 01:45 | 18.31320 | -64.29259 | 32791 ft | 454 kts | 306° |
| 2026-04-21 01:45 | 18.32955 | -64.32061 | 33334 ft | 452 kts | 306° |
| 2026-04-21 01:46 | 18.34597 | -64.34879 | 33862 ft | 449 kts | 306° |
| 2026-04-21 01:46 | 18.36209 | -64.37643 | 34330 ft | 448 kts | 306° |
| 2026-04-21 01:46 | 18.37830 | -64.40423 | 34758 ft | 447 kts | 306° |
| 2026-04-21 01:46 | 18.39446 | -64.43193 | 35176 ft | 446 kts | 306° |
| 2026-04-21 01:47 | 18.41081 | -64.45996 | 35581 ft | 445 kts | 306° |
| 2026-04-21 01:47 | 18.42670 | -64.48721 | 35960 ft | 444 kts | 306° |
| 2026-04-21 01:47 | 18.44294 | -64.51506 | 36319 ft | 443 kts | 306° |
| 2026-04-21 01:47 | 18.45898 | -64.54258 | 36639 ft | 443 kts | 306° |
| 2026-04-21 01:48 | 18.47502 | -64.57011 | 36943 ft | 443 kts | 306° |
| 2026-04-21 01:48 | 18.49106 | -64.59764 | 37237 ft | 443 kts | 306° |
| 2026-04-21 01:48 | 18.50718 | -64.62534 | 37520 ft | 443 kts | 306° |
| 2026-04-21 01:48 | 18.52330 | -64.65304 | 37789 ft | 443 kts | 306° |
| 2026-04-21 01:49 | 18.53936 | -64.68063 | 38029 ft | 444 kts | 306° |
| 2026-04-21 01:49 | 18.55533 | -64.70808 | 38071 ft | 448 kts | 306° |
| 2026-04-21 01:49 | 18.58783 | -64.76405 | 38067 ft | 445 kts | 306° |
| 2026-04-21 01:50 | 18.62010 | -64.81962 | 38067 ft | 446 kts | 306° |
| 2026-04-21 01:50 | 18.65228 | -64.87508 | 38067 ft | 448 kts | 305° |
| 2026-04-21 01:51 | 18.68477 | -64.93115 | 38067 ft | 448 kts | 304° |
| 2026-04-21 01:51 | 18.71726 | -64.98726 | 38066 ft | 449 kts | 304° |
| 2026-04-21 01:52 | 18.76589 | -65.07134 | 38064 ft | 450 kts | 304° |
| 2026-04-21 01:53 | 18.79833 | -65.12750 | 38064 ft | 450 kts | 304° |
| 2026-04-21 01:53 | 18.83065 | -65.18349 | 38064 ft | 450 kts | 304° |
| 2026-04-21 01:54 | 18.86308 | -65.23972 | 38064 ft | 450 kts | 304° |
| 2026-04-21 01:54 | 18.89557 | -65.29611 | 38064 ft | 450 kts | 304° |
| 2026-04-21 01:55 | 18.92797 | -65.35240 | 38066 ft | 450 kts | 304° |
| 2026-04-21 01:55 | 18.96038 | -65.40874 | 38068 ft | 451 kts | 304° |
| 2026-04-21 01:56 | 18.99274 | -65.46506 | 38070 ft | 451 kts | 304° |
| 2026-04-21 01:56 | 19.02539 | -65.52196 | 38072 ft | 452 kts | 304° |
| 2026-04-21 01:57 | 19.05783 | -65.57851 | 38073 ft | 453 kts | 304° |
| 2026-04-21 01:57 | 19.09030 | -65.63521 | 38073 ft | 452 kts | 304° |
| 2026-04-21 01:58 | 19.12278 | -65.69195 | 38073 ft | 452 kts | 304° |
| 2026-04-21 01:58 | 19.15522 | -65.74866 | 38073 ft | 452 kts | 304° |
| 2026-04-21 01:59 | 19.18768 | -65.80547 | 38073 ft | 452 kts | 304° |
| 2026-04-21 01:59 | 19.22010 | -65.86227 | 38073 ft | 452 kts | 304° |
| 2026-04-21 02:00 | 19.25238 | -65.91887 | 38073 ft | 452 kts | 304° |
| 2026-04-21 02:00 | 19.28487 | -65.97588 | 38073 ft | 452 kts | 304° |
| 2026-04-21 02:01 | 19.31737 | -66.03298 | 38073 ft | 452 kts | 304° |
| 2026-04-21 02:01 | 19.34956 | -66.08959 | 38073 ft | 452 kts | 304° |
| 2026-04-21 02:02 | 19.38198 | -66.14665 | 38073 ft | 452 kts | 304° |
| 2026-04-21 02:02 | 19.41432 | -66.20362 | 38073 ft | 452 kts | 304° |
| 2026-04-21 02:03 | 19.44664 | -66.26061 | 38073 ft | 452 kts | 304° |
| 2026-04-21 02:03 | 19.47883 | -66.31744 | 38073 ft | 452 kts | 304° |
| 2026-04-21 02:04 | 19.51127 | -66.37474 | 38073 ft | 452 kts | 304° |
| 2026-04-21 02:04 | 19.54341 | -66.43158 | 38073 ft | 452 kts | 304° |
| 2026-04-21 02:05 | 19.57561 | -66.48858 | 38073 ft | 453 kts | 304° |
| 2026-04-21 02:05 | 19.61065 | -66.54374 | 38069 ft | 449 kts | 311° |
| 2026-04-21 02:06 | 19.64833 | -66.59600 | 38064 ft | 450 kts | 310° |
| 2026-04-21 02:06 | 19.68542 | -66.64887 | 38060 ft | 450 kts | 310° |
| 2026-04-21 02:07 | 19.72281 | -66.70200 | 38056 ft | 450 kts | 310° |
| 2026-04-21 02:07 | 19.76005 | -66.75501 | 38054 ft | 450 kts | 310° |
| 2026-04-21 02:08 | 19.79719 | -66.80797 | 38054 ft | 450 kts | 310° |
| 2026-04-21 02:08 | 19.83459 | -66.86131 | 38054 ft | 450 kts | 310° |
| 2026-04-21 02:09 | 19.87191 | -66.91461 | 38054 ft | 450 kts | 310° |
| 2026-04-21 02:09 | 19.90893 | -66.96752 | 38054 ft | 450 kts | 310° |
| 2026-04-21 02:10 | 19.94610 | -67.02071 | 38054 ft | 451 kts | 309° |
| 2026-04-21 02:10 | 19.98346 | -67.07420 | 38054 ft | 451 kts | 309° |
| 2026-04-21 02:11 | 20.02080 | -67.12772 | 38054 ft | 452 kts | 309° |
| 2026-04-21 02:11 | 20.05827 | -67.18150 | 38054 ft | 453 kts | 308° |
| 2026-04-21 02:12 | 20.09558 | -67.23507 | 38067 ft | 453 kts | 308° |
| 2026-04-21 02:12 | 20.13302 | -67.28887 | 38074 ft | 454 kts | 308° |
| 2026-04-21 02:13 | 20.17054 | -67.34284 | 38074 ft | 453 kts | 308° |
| 2026-04-21 02:13 | 20.20795 | -67.39671 | 38074 ft | 453 kts | 308° |
| 2026-04-21 02:14 | 20.24519 | -67.45039 | 38074 ft | 453 kts | 308° |
| 2026-04-21 02:14 | 20.28243 | -67.50410 | 38074 ft | 453 kts | 308° |
| 2026-04-21 02:15 | 20.31973 | -67.55796 | 38074 ft | 453 kts | 308° |
| 2026-04-21 02:15 | 20.35703 | -67.61186 | 38074 ft | 453 kts | 308° |
| 2026-04-21 02:16 | 20.39440 | -67.66592 | 38074 ft | 453 kts | 308° |
| 2026-04-21 02:16 | 20.43172 | -67.71995 | 38074 ft | 453 kts | 308° |
| 2026-04-21 02:17 | 20.46884 | -67.77375 | 38074 ft | 453 kts | 308° |
| 2026-04-21 02:17 | 20.50621 | -67.82795 | 38074 ft | 453 kts | 308° |
| 2026-04-21 02:18 | 20.54336 | -67.88190 | 38074 ft | 453 kts | 308° |
| 2026-04-21 02:18 | 20.58059 | -67.93600 | 38074 ft | 453 kts | 308° |
| 2026-04-21 02:19 | 20.61767 | -67.98994 | 38074 ft | 453 kts | 308° |
| 2026-04-21 02:19 | 20.65491 | -68.04415 | 38074 ft | 453 kts | 308° |
| 2026-04-21 02:20 | 20.69207 | -68.09831 | 38074 ft | 453 kts | 308° |
| 2026-04-21 02:20 | 20.72968 | -68.15190 | 38074 ft | 453 kts | 310° |
| 2026-04-21 02:21 | 20.76964 | -68.20386 | 38074 ft | 453 kts | 311° |
| 2026-04-21 02:21 | 20.80916 | -68.25603 | 38074 ft | 453 kts | 310° |
| 2026-04-21 02:22 | 20.84853 | -68.30814 | 38074 ft | 453 kts | 310° |
| 2026-04-21 02:22 | 20.88801 | -68.36045 | 38074 ft | 453 kts | 310° |
| 2026-04-21 02:23 | 20.92728 | -68.41258 | 38073 ft | 453 kts | 310° |
| 2026-04-21 02:23 | 20.96682 | -68.46511 | 38061 ft | 453 kts | 310° |
| 2026-04-21 02:24 | 21.00605 | -68.51731 | 38049 ft | 451 kts | 310° |
| 2026-04-21 02:24 | 21.04518 | -68.56943 | 38037 ft | 449 kts | 310° |
| 2026-04-21 02:25 | 21.08405 | -68.62124 | 38026 ft | 448 kts | 309° |
| 2026-04-21 02:25 | 21.12279 | -68.67293 | 38020 ft | 449 kts | 309° |
| 2026-04-21 02:26 | 21.16188 | -68.72513 | 38020 ft | 449 kts | 309° |
| 2026-04-21 02:26 | 21.20096 | -68.77738 | 38020 ft | 449 kts | 309° |
| 2026-04-21 02:27 | 21.23971 | -68.82922 | 38020 ft | 449 kts | 309° |
| 2026-04-21 02:27 | 21.27872 | -68.88147 | 38020 ft | 449 kts | 309° |
| 2026-04-21 02:28 | 21.31758 | -68.93357 | 38020 ft | 448 kts | 309° |
| 2026-04-21 02:28 | 21.35623 | -68.98543 | 38020 ft | 445 kts | 309° |
| 2026-04-21 02:29 | 21.39446 | -69.03678 | 38020 ft | 442 kts | 309° |
| 2026-04-21 02:29 | 21.43278 | -69.08830 | 38020 ft | 440 kts | 309° |
| 2026-04-21 02:30 | 21.47067 | -69.13927 | 38020 ft | 439 kts | 309° |
| 2026-04-21 02:30 | 21.50875 | -69.19056 | 38020 ft | 439 kts | 309° |
| 2026-04-21 02:31 | 21.54666 | -69.24168 | 38020 ft | 439 kts | 309° |
| 2026-04-21 02:31 | 21.58451 | -69.29275 | 38020 ft | 439 kts | 309° |
| 2026-04-21 02:32 | 21.62259 | -69.34418 | 38020 ft | 439 kts | 309° |
| 2026-04-21 02:32 | 21.66039 | -69.39528 | 38020 ft | 440 kts | 309° |
| 2026-04-21 02:33 | 21.69834 | -69.44664 | 38020 ft | 439 kts | 309° |
| 2026-04-21 02:33 | 21.73609 | -69.49777 | 38020 ft | 440 kts | 309° |
| 2026-04-21 02:34 | 21.77403 | -69.54919 | 38020 ft | 439 kts | 309° |
| 2026-04-21 02:34 | 21.81179 | -69.60044 | 38020 ft | 439 kts | 309° |
| 2026-04-21 02:35 | 21.84977 | -69.65204 | 38020 ft | 439 kts | 309° |
| 2026-04-21 02:35 | 21.88765 | -69.70353 | 38020 ft | 440 kts | 309° |
| 2026-04-21 02:36 | 21.92545 | -69.75497 | 38020 ft | 439 kts | 309° |
| 2026-04-21 02:36 | 21.96309 | -69.80623 | 38020 ft | 439 kts | 309° |
| 2026-04-21 02:37 | 22.00098 | -69.85789 | 38020 ft | 439 kts | 309° |
| 2026-04-21 02:37 | 22.03877 | -69.90947 | 38020 ft | 439 kts | 309° |
| 2026-04-21 02:38 | 22.07626 | -69.96069 | 38020 ft | 439 kts | 309° |
| 2026-04-21 02:38 | 22.11426 | -70.01266 | 38020 ft | 439 kts | 309° |
| 2026-04-21 02:39 | 22.15185 | -70.06411 | 38020 ft | 440 kts | 309° |
| 2026-04-21 02:39 | 22.18962 | -70.11588 | 38020 ft | 439 kts | 309° |
| 2026-04-21 02:40 | 22.22710 | -70.16727 | 38020 ft | 440 kts | 309° |
| 2026-04-21 02:40 | 22.26497 | -70.21928 | 38020 ft | 439 kts | 309° |
| 2026-04-21 02:41 | 22.30251 | -70.27085 | 38020 ft | 439 kts | 309° |
| 2026-04-21 02:41 | 22.34004 | -70.32248 | 38020 ft | 439 kts | 309° |
| 2026-04-21 02:42 | 22.37782 | -70.37450 | 38020 ft | 439 kts | 309° |
| 2026-04-21 02:42 | 22.41522 | -70.42605 | 38020 ft | 439 kts | 309° |
| 2026-04-21 02:43 | 22.45299 | -70.47817 | 38020 ft | 439 kts | 309° |
| 2026-04-21 02:43 | 22.49051 | -70.52997 | 38020 ft | 439 kts | 309° |
| 2026-04-21 02:44 | 22.52802 | -70.58182 | 38020 ft | 440 kts | 309° |
| 2026-04-21 02:44 | 22.56559 | -70.63382 | 38020 ft | 440 kts | 309° |
| 2026-04-21 02:45 | 22.60304 | -70.68568 | 38020 ft | 440 kts | 309° |
| 2026-04-21 02:45 | 22.64064 | -70.73781 | 38020 ft | 439 kts | 309° |
| 2026-04-21 02:46 | 22.67799 | -70.78964 | 38020 ft | 439 kts | 309° |
| 2026-04-21 02:46 | 22.71516 | -70.84190 | 38020 ft | 439 kts | 307° |
| 2026-04-21 02:47 | 22.75188 | -70.89477 | 38020 ft | 440 kts | 307° |
| 2026-04-21 02:47 | 22.78868 | -70.94748 | 38020 ft | 441 kts | 306° |
| 2026-04-21 02:48 | 22.82568 | -71.00057 | 38020 ft | 444 kts | 306° |
| 2026-04-21 02:48 | 22.86290 | -71.05402 | 38020 ft | 447 kts | 306° |
| 2026-04-21 02:49 | 22.90017 | -71.10759 | 38020 ft | 447 kts | 306° |
| 2026-04-21 02:49 | 22.93739 | -71.16112 | 38020 ft | 444 kts | 306° |
| 2026-04-21 02:50 | 22.97435 | -71.21434 | 38020 ft | 442 kts | 306° |
| 2026-04-21 02:50 | 23.01119 | -71.26744 | 38020 ft | 441 kts | 306° |
| 2026-04-21 02:51 | 23.04787 | -71.32037 | 38034 ft | 439 kts | 305° |
| 2026-04-21 02:51 | 23.08451 | -71.37329 | 38070 ft | 439 kts | 305° |
| 2026-04-21 02:52 | 23.12094 | -71.42596 | 38096 ft | 439 kts | 306° |
| 2026-04-21 02:52 | 23.15758 | -71.47898 | 38113 ft | 440 kts | 306° |
| 2026-04-21 02:53 | 23.19412 | -71.53191 | 38119 ft | 440 kts | 306° |
| 2026-04-21 02:53 | 23.23071 | -71.58497 | 38119 ft | 439 kts | 306° |
| 2026-04-21 02:54 | 23.26734 | -71.63814 | 38118 ft | 439 kts | 306° |
| 2026-04-21 02:54 | 23.30386 | -71.69121 | 38118 ft | 439 kts | 305° |
| 2026-04-21 02:55 | 23.34031 | -71.74425 | 38118 ft | 439 kts | 305° |
| 2026-04-21 02:55 | 23.37658 | -71.79702 | 38118 ft | 439 kts | 305° |
| 2026-04-21 02:56 | 23.41339 | -71.85036 | 38118 ft | 439 kts | 305° |
| 2026-04-21 02:56 | 23.46795 | -71.92958 | 38118 ft | 439 kts | 305° |
| 2026-04-21 02:57 | 23.50464 | -71.98292 | 38118 ft | 439 kts | 305° |
| 2026-04-21 02:57 | 23.54112 | -72.03603 | 38118 ft | 439 kts | 305° |
| 2026-04-21 02:58 | 23.57759 | -72.08917 | 38118 ft | 439 kts | 305° |
| 2026-04-21 02:58 | 23.61412 | -72.14246 | 38118 ft | 439 kts | 305° |
| 2026-04-21 02:59 | 23.65043 | -72.19549 | 38118 ft | 439 kts | 305° |
| 2026-04-21 02:59 | 23.68677 | -72.24860 | 38118 ft | 439 kts | 305° |
| 2026-04-21 03:00 | 23.72322 | -72.30194 | 38118 ft | 439 kts | 305° |
| 2026-04-21 03:00 | 23.75963 | -72.35527 | 38118 ft | 439 kts | 305° |
| 2026-04-21 03:01 | 23.79610 | -72.40876 | 38118 ft | 439 kts | 305° |
| 2026-04-21 03:01 | 23.83246 | -72.46214 | 38118 ft | 439 kts | 305° |
| 2026-04-21 03:02 | 23.86882 | -72.51556 | 38118 ft | 439 kts | 305° |
| 2026-04-21 03:02 | 23.90493 | -72.56869 | 38118 ft | 439 kts | 305° |
| 2026-04-21 03:03 | 23.94134 | -72.62231 | 38118 ft | 439 kts | 305° |
| 2026-04-21 03:03 | 23.97751 | -72.67564 | 38118 ft | 439 kts | 305° |
| 2026-04-21 03:04 | 24.01387 | -72.72929 | 38119 ft | 439 kts | 305° |
| 2026-04-21 03:04 | 24.05015 | -72.78288 | 38119 ft | 439 kts | 305° |
| 2026-04-21 03:05 | 24.08630 | -72.83636 | 38119 ft | 439 kts | 305° |
| 2026-04-21 03:05 | 24.12250 | -72.88995 | 38118 ft | 439 kts | 305° |
| 2026-04-21 03:06 | 24.15855 | -72.94340 | 38118 ft | 439 kts | 305° |
| 2026-04-21 03:06 | 24.19475 | -72.99711 | 38118 ft | 439 kts | 304° |
| 2026-04-21 03:07 | 24.23111 | -73.05112 | 38118 ft | 440 kts | 304° |
| 2026-04-21 03:07 | 24.26729 | -73.10491 | 38118 ft | 440 kts | 304° |
| 2026-04-21 03:08 | 24.30327 | -73.15848 | 38118 ft | 440 kts | 304° |
| 2026-04-21 03:08 | 24.33973 | -73.21281 | 38118 ft | 441 kts | 304° |
| 2026-04-21 03:09 | 24.37579 | -73.26661 | 38118 ft | 441 kts | 304° |
| 2026-04-21 03:09 | 24.41212 | -73.32088 | 38118 ft | 441 kts | 304° |
| 2026-04-21 03:10 | 24.44827 | -73.37492 | 38118 ft | 441 kts | 304° |
| 2026-04-21 03:10 | 24.48447 | -73.42911 | 38118 ft | 441 kts | 304° |
| 2026-04-21 03:11 | 24.52061 | -73.48326 | 38118 ft | 441 kts | 304° |
| 2026-04-21 03:11 | 24.55295 | -73.53951 | 38118 ft | 438 kts | 293° |
| 2026-04-21 03:12 | 24.56824 | -73.60374 | 38119 ft | 435 kts | 274° |
| 2026-04-21 03:12 | 24.57121 | -73.66995 | 38118 ft | 435 kts | 272° |
| 2026-04-21 03:13 | 24.57506 | -73.73612 | 38118 ft | 435 kts | 272° |
| 2026-04-21 03:13 | 24.57847 | -73.80210 | 38118 ft | 435 kts | 272° |
| 2026-04-21 03:14 | 24.58177 | -73.86855 | 38118 ft | 435 kts | 272° |
| 2026-04-21 03:14 | 24.58498 | -73.93463 | 38118 ft | 435 kts | 272° |
| 2026-04-21 03:15 | 24.58813 | -74.00095 | 38118 ft | 435 kts | 272° |
| 2026-04-21 03:15 | 24.59122 | -74.06709 | 38118 ft | 435 kts | 272° |
| 2026-04-21 03:16 | 24.59427 | -74.13326 | 38118 ft | 435 kts | 272° |
| 2026-04-21 03:16 | 24.59728 | -74.19919 | 38118 ft | 435 kts | 272° |
| 2026-04-21 03:17 | 24.60029 | -74.26580 | 38118 ft | 435 kts | 272° |
| 2026-04-21 03:17 | 24.60324 | -74.33189 | 38118 ft | 435 kts | 272° |
| 2026-04-21 03:18 | 24.60618 | -74.39819 | 38118 ft | 435 kts | 272° |
| 2026-04-21 03:18 | 24.60907 | -74.46437 | 38118 ft | 435 kts | 272° |
| 2026-04-21 03:19 | 24.61194 | -74.53056 | 38118 ft | 435 kts | 272° |
| 2026-04-21 03:19 | 24.61478 | -74.59678 | 38118 ft | 435 kts | 272° |
| 2026-04-21 03:20 | 24.61759 | -74.66280 | 38118 ft | 435 kts | 272° |
| 2026-04-21 03:20 | 24.62038 | -74.72930 | 38118 ft | 435 kts | 272° |
| 2026-04-21 03:21 | 24.62314 | -74.79565 | 38118 ft | 435 kts | 272° |
| 2026-04-21 03:21 | 24.62586 | -74.86153 | 38118 ft | 435 kts | 272° |
| 2026-04-21 03:22 | 24.62857 | -74.92815 | 38118 ft | 435 kts | 272° |
| 2026-04-21 03:22 | 24.63124 | -74.99447 | 38118 ft | 436 kts | 272° |
| 2026-04-21 03:23 | 24.63389 | -75.06107 | 38118 ft | 438 kts | 272° |
| 2026-04-21 03:23 | 24.63652 | -75.12781 | 38118 ft | 439 kts | 272° |
| 2026-04-21 03:24 | 24.63912 | -75.19454 | 38118 ft | 439 kts | 272° |
| 2026-04-21 03:24 | 24.64170 | -75.26163 | 38118 ft | 439 kts | 272° |
| 2026-04-21 03:25 | 24.64424 | -75.32835 | 38118 ft | 439 kts | 272° |
| 2026-04-21 03:25 | 24.64675 | -75.39497 | 38118 ft | 439 kts | 272° |
| 2026-04-21 03:26 | 24.64923 | -75.46181 | 38118 ft | 439 kts | 272° |
| 2026-04-21 03:26 | 24.65170 | -75.52889 | 38118 ft | 439 kts | 272° |
| 2026-04-21 03:27 | 24.65412 | -75.59582 | 38118 ft | 439 kts | 272° |
| 2026-04-21 03:27 | 24.65827 | -75.66248 | 38118 ft | 439 kts | 277° |
| 2026-04-21 03:28 | 24.67112 | -75.72810 | 38118 ft | 440 kts | 282° |
| 2026-04-21 03:28 | 24.68448 | -75.79358 | 38118 ft | 440 kts | 281° |
| 2026-04-21 03:29 | 24.69804 | -75.85912 | 38120 ft | 440 kts | 282° |
| 2026-04-21 03:29 | 24.71172 | -75.92435 | 38130 ft | 440 kts | 282° |
| 2026-04-21 03:30 | 24.72550 | -75.98997 | 38140 ft | 440 kts | 282° |
| 2026-04-21 03:30 | 24.73924 | -76.05527 | 38150 ft | 440 kts | 282° |
| 2026-04-21 03:31 | 24.75299 | -76.12068 | 38155 ft | 440 kts | 282° |
| 2026-04-21 03:31 | 24.76669 | -76.18587 | 38155 ft | 440 kts | 282° |
| 2026-04-21 03:32 | 24.78043 | -76.25141 | 38155 ft | 440 kts | 282° |
| 2026-04-21 03:32 | 24.79410 | -76.31674 | 38155 ft | 440 kts | 282° |
| 2026-04-21 03:33 | 24.80772 | -76.38200 | 38155 ft | 440 kts | 282° |
| 2026-04-21 03:33 | 24.82137 | -76.44755 | 38155 ft | 440 kts | 282° |
| 2026-04-21 03:34 | 24.83501 | -76.51317 | 38155 ft | 440 kts | 282° |
| 2026-04-21 03:34 | 24.84866 | -76.57896 | 38155 ft | 440 kts | 282° |
| 2026-04-21 03:35 | 24.86216 | -76.64424 | 38155 ft | 440 kts | 282° |
| 2026-04-21 03:35 | 24.87567 | -76.70967 | 38155 ft | 440 kts | 282° |
| 2026-04-21 03:36 | 24.88917 | -76.77522 | 38155 ft | 440 kts | 282° |
| 2026-04-21 03:36 | 24.90265 | -76.84080 | 38155 ft | 439 kts | 281° |
| 2026-04-21 03:37 | 24.91607 | -76.90628 | 38155 ft | 437 kts | 281° |
| 2026-04-21 03:37 | 24.92938 | -76.97142 | 38155 ft | 434 kts | 281° |
| 2026-04-21 03:38 | 24.94249 | -77.03569 | 38155 ft | 432 kts | 281° |
| 2026-04-21 03:38 | 24.95556 | -77.09991 | 38155 ft | 431 kts | 281° |
| 2026-04-21 03:39 | 24.96860 | -77.16418 | 38155 ft | 431 kts | 281° |
| 2026-04-21 03:39 | 24.98165 | -77.22864 | 38155 ft | 431 kts | 281° |
| 2026-04-21 03:40 | 24.99464 | -77.29297 | 38155 ft | 430 kts | 281° |
| 2026-04-21 03:40 | 25.00750 | -77.35674 | 38155 ft | 429 kts | 281° |
| 2026-04-21 03:41 | 25.02057 | -77.42059 | 38155 ft | 428 kts | 283° |
| 2026-04-21 03:41 | 25.04058 | -77.48251 | 38155 ft | 430 kts | 290° |
| 2026-04-21 03:42 | 25.06287 | -77.54323 | 38155 ft | 429 kts | 289° |
| 2026-04-21 03:42 | 25.08516 | -77.60429 | 38154 ft | 428 kts | 289° |
| 2026-04-21 03:43 | 25.10751 | -77.66464 | 38154 ft | 427 kts | 289° |
| 2026-04-21 03:43 | 25.12997 | -77.72513 | 38155 ft | 426 kts | 289° |
| 2026-04-21 03:44 | 25.15243 | -77.78554 | 38154 ft | 426 kts | 289° |
| 2026-04-21 03:44 | 25.17479 | -77.84573 | 38151 ft | 427 kts | 289° |
| 2026-04-21 03:45 | 25.19732 | -77.90640 | 38149 ft | 427 kts | 289° |
| 2026-04-21 03:45 | 25.21963 | -77.96652 | 38149 ft | 426 kts | 289° |
| 2026-04-21 03:46 | 25.24217 | -78.02737 | 38149 ft | 426 kts | 289° |
| 2026-04-21 03:46 | 25.26443 | -78.08752 | 38148 ft | 426 kts | 289° |
| 2026-04-21 03:47 | 25.28687 | -78.14829 | 38144 ft | 426 kts | 289° |
| 2026-04-21 03:47 | 25.30963 | -78.20849 | 38140 ft | 428 kts | 291° |
| 2026-04-21 03:48 | 25.33558 | -78.26747 | 38137 ft | 428 kts | 292° |
| 2026-04-21 03:48 | 25.36117 | -78.32664 | 38137 ft | 428 kts | 292° |
| 2026-04-21 03:49 | 25.38667 | -78.38586 | 38137 ft | 428 kts | 292° |
| 2026-04-21 03:49 | 25.41223 | -78.44535 | 38137 ft | 428 kts | 292° |
| 2026-04-21 03:50 | 25.43756 | -78.50446 | 38139 ft | 428 kts | 292° |
| 2026-04-21 03:50 | 25.46303 | -78.56396 | 38151 ft | 428 kts | 292° |
| 2026-04-21 03:51 | 25.48838 | -78.62329 | 38162 ft | 428 kts | 292° |
| 2026-04-21 03:51 | 25.51368 | -78.68262 | 38169 ft | 428 kts | 291° |
| 2026-04-21 03:52 | 25.53892 | -78.74187 | 38173 ft | 428 kts | 291° |
| 2026-04-21 03:52 | 25.56422 | -78.80133 | 38173 ft | 428 kts | 291° |
| 2026-04-21 03:53 | 25.58950 | -78.86084 | 38173 ft | 428 kts | 291° |
| 2026-04-21 03:53 | 25.61479 | -78.92046 | 38173 ft | 428 kts | 291° |
| 2026-04-21 03:54 | 25.63988 | -78.97968 | 38173 ft | 427 kts | 291° |
| 2026-04-21 03:54 | 25.66503 | -79.03912 | 38170 ft | 426 kts | 291° |
| 2026-04-21 03:55 | 25.68991 | -79.09800 | 38169 ft | 423 kts | 291° |
| 2026-04-21 03:55 | 25.71471 | -79.15677 | 38169 ft | 421 kts | 291° |
| 2026-04-21 03:56 | 25.73932 | -79.21519 | 38170 ft | 419 kts | 291° |
| 2026-04-21 03:56 | 25.76375 | -79.27327 | 38168 ft | 419 kts | 291° |
| 2026-04-21 03:57 | 25.78835 | -79.33182 | 38164 ft | 419 kts | 291° |
| 2026-04-21 03:57 | 25.81289 | -79.39030 | 38159 ft | 420 kts | 291° |
| 2026-04-21 03:58 | 25.83743 | -79.44887 | 38155 ft | 420 kts | 291° |
| 2026-04-21 03:58 | 25.86204 | -79.50768 | 38155 ft | 419 kts | 291° |
| 2026-04-21 03:59 | 25.88650 | -79.56622 | 38155 ft | 420 kts | 291° |
| 2026-04-21 04:00 | 25.92314 | -79.65405 | 38155 ft | 420 kts | 291° |
| 2026-04-21 04:00 | 25.94751 | -79.71255 | 38159 ft | 420 kts | 291° |
| 2026-04-21 04:01 | 25.97203 | -79.77151 | 38161 ft | 419 kts | 291° |
| 2026-04-21 04:01 | 25.99628 | -79.82988 | 38160 ft | 419 kts | 291° |
| 2026-04-21 04:02 | 26.02066 | -79.88866 | 38158 ft | 419 kts | 291° |
| 2026-04-21 04:02 | 26.04492 | -79.94724 | 38134 ft | 419 kts | 291° |
| 2026-04-21 04:02 | 26.05695 | -79.97632 | 37622 ft | 417 kts | 291° |
| 2026-04-21 04:03 | 26.06888 | -80.00516 | 36956 ft | 416 kts | 291° |
| 2026-04-21 04:03 | 26.08084 | -80.03411 | 36250 ft | 416 kts | 291° |
| 2026-04-21 04:03 | 26.09300 | -80.06358 | 35475 ft | 417 kts | 291° |
| 2026-04-21 04:03 | 26.10490 | -80.09242 | 34686 ft | 419 kts | 291° |
| 2026-04-21 04:04 | 26.11700 | -80.12176 | 33857 ft | 421 kts | 291° |
| 2026-04-21 04:04 | 26.13060 | -80.15074 | 32991 ft | 426 kts | 297° |
| 2026-04-21 04:04 | 26.14735 | -80.17752 | 32106 ft | 433 kts | 305° |
| 2026-04-21 04:04 | 26.16819 | -80.20143 | 31221 ft | 440 kts | 315° |
| 2026-04-21 04:05 | 26.19279 | -80.22225 | 30330 ft | 446 kts | 322° |
| 2026-04-21 04:05 | 26.21958 | -80.23869 | 30109 ft | 441 kts | 330° |
| 2026-04-21 04:05 | 26.24765 | -80.25299 | 30178 ft | 446 kts | 331° |
| 2026-04-21 04:05 | 26.27596 | -80.26765 | 30169 ft | 457 kts | 330° |
| 2026-04-21 04:06 | 26.30471 | -80.28291 | 30176 ft | 460 kts | 330° |
| 2026-04-21 04:06 | 26.36216 | -80.31314 | 30180 ft | 458 kts | 330° |
| 2026-04-21 04:07 | 26.41975 | -80.34329 | 30184 ft | 457 kts | 330° |
| 2026-04-21 04:07 | 26.47692 | -80.37324 | 30190 ft | 457 kts | 330° |
| 2026-04-21 04:08 | 26.53415 | -80.40321 | 30197 ft | 456 kts | 330° |
| 2026-04-21 04:08 | 26.59158 | -80.43330 | 30201 ft | 456 kts | 330° |
| 2026-04-21 04:09 | 26.64929 | -80.46208 | 30201 ft | 460 kts | 334° |
| 2026-04-21 04:09 | 26.70956 | -80.48594 | 30201 ft | 461 kts | 336° |
| 2026-04-21 04:10 | 26.76975 | -80.51055 | 30203 ft | 461 kts | 335° |
| 2026-04-21 04:10 | 26.82976 | -80.53524 | 30207 ft | 461 kts | 335° |
| 2026-04-21 04:11 | 26.88951 | -80.55989 | 30209 ft | 460 kts | 335° |
| 2026-04-21 04:11 | 26.91952 | -80.57230 | 29620 ft | 464 kts | 335° |
| 2026-04-21 04:11 | 26.94954 | -80.58476 | 28543 ft | 468 kts | 334° |
| 2026-04-21 04:11 | 26.97990 | -80.59735 | 27438 ft | 472 kts | 334° |
| 2026-04-21 04:12 | 27.01041 | -80.61000 | 26270 ft | 469 kts | 334° |
| 2026-04-21 04:12 | 27.04083 | -80.62260 | 25088 ft | 469 kts | 334° |
| 2026-04-21 04:12 | 27.07117 | -80.63523 | 24086 ft | 466 kts | 334° |
| 2026-04-21 04:12 | 27.10083 | -80.64750 | 23378 ft | 449 kts | 335° |
| 2026-04-21 04:13 | 27.12958 | -80.65945 | 23186 ft | 440 kts | 334° |
| 2026-04-21 04:13 | 27.15858 | -80.67164 | 23219 ft | 447 kts | 334° |
| 2026-04-21 04:13 | 27.18786 | -80.68398 | 23217 ft | 450 kts | 334° |
| 2026-04-21 04:13 | 27.21712 | -80.69625 | 23219 ft | 450 kts | 334° |
| 2026-04-21 04:14 | 27.24608 | -80.70839 | 23219 ft | 449 kts | 334° |
| 2026-04-21 04:14 | 27.27521 | -80.72060 | 22755 ft | 443 kts | 334° |
| 2026-04-21 04:14 | 27.30374 | -80.73256 | 22222 ft | 434 kts | 334° |
| 2026-04-21 04:14 | 27.33125 | -80.74406 | 21820 ft | 412 kts | 334° |
| 2026-04-21 04:15 | 27.35732 | -80.75497 | 21435 ft | 392 kts | 334° |
| 2026-04-21 04:15 | 27.38204 | -80.76540 | 21192 ft | 371 kts | 334° |
| 2026-04-21 04:15 | 27.40574 | -80.77567 | 21226 ft | 368 kts | 333° |
| 2026-04-21 04:15 | 27.42969 | -80.78618 | 21155 ft | 370 kts | 333° |
| 2026-04-21 04:16 | 27.45335 | -80.79644 | 20738 ft | 366 kts | 333° |
| 2026-04-21 04:16 | 27.47706 | -80.80671 | 20200 ft | 364 kts | 334° |
| 2026-04-21 04:16 | 27.50054 | -80.81691 | 19637 ft | 364 kts | 334° |
| 2026-04-21 04:16 | 27.52417 | -80.82717 | 19066 ft | 363 kts | 334° |
| 2026-04-21 04:17 | 27.54738 | -80.83724 | 18502 ft | 362 kts | 334° |
| 2026-04-21 04:17 | 27.57095 | -80.84764 | 17926 ft | 361 kts | 333° |
| 2026-04-21 04:17 | 27.59348 | -80.85922 | 17482 ft | 355 kts | 330° |
| 2026-04-21 04:17 | 27.61556 | -80.87119 | 17048 ft | 351 kts | 331° |
| 2026-04-21 04:18 | 27.63742 | -80.88274 | 16575 ft | 348 kts | 332° |
| 2026-04-21 04:18 | 27.65908 | -80.89408 | 16088 ft | 346 kts | 332° |
| 2026-04-21 04:18 | 27.68073 | -80.90546 | 15597 ft | 344 kts | 332° |
| 2026-04-21 04:18 | 27.70244 | -80.91685 | 15100 ft | 342 kts | 332° |
| 2026-04-21 04:19 | 27.72386 | -80.92810 | 14609 ft | 340 kts | 332° |
| 2026-04-21 04:19 | 27.74493 | -80.93916 | 14126 ft | 338 kts | 332° |
| 2026-04-21 04:19 | 27.76628 | -80.95036 | 13638 ft | 337 kts | 333° |
| 2026-04-21 04:19 | 27.78724 | -80.96138 | 13158 ft | 335 kts | 333° |
| 2026-04-21 04:20 | 27.80829 | -80.97244 | 12678 ft | 333 kts | 333° |
| 2026-04-21 04:20 | 27.82912 | -80.98338 | 12203 ft | 331 kts | 333° |
| 2026-04-21 04:20 | 27.84988 | -80.99429 | 11718 ft | 330 kts | 333° |
| 2026-04-21 04:20 | 27.87073 | -81.00526 | 11075 ft | 333 kts | 333° |
| 2026-04-21 04:21 | 27.89162 | -81.01626 | 10219 ft | 332 kts | 334° |
| 2026-04-21 04:21 | 27.91187 | -81.02691 | 9903 ft | 314 kts | 334° |
| 2026-04-21 04:21 | 27.93101 | -81.03697 | 9587 ft | 300 kts | 334° |
| 2026-04-21 04:21 | 27.95002 | -81.04578 | 9213 ft | 289 kts | 339° |
| 2026-04-21 04:22 | 27.96855 | -81.05332 | 8850 ft | 279 kts | 338° |
| 2026-04-21 04:22 | 27.98635 | -81.06081 | 8499 ft | 270 kts | 338° |
| 2026-04-21 04:22 | 28.00369 | -81.06813 | 8159 ft | 263 kts | 338° |
| 2026-04-21 04:22 | 28.02069 | -81.07532 | 7824 ft | 261 kts | 338° |
| 2026-04-21 04:23 | 28.03757 | -81.08246 | 7493 ft | 260 kts | 338° |
| 2026-04-21 04:23 | 28.05441 | -81.08958 | 7161 ft | 258 kts | 338° |
| 2026-04-21 04:23 | 28.07098 | -81.09660 | 6839 ft | 256 kts | 338° |
| 2026-04-21 04:23 | 28.08763 | -81.10364 | 6509 ft | 255 kts | 339° |
| 2026-04-21 04:24 | 28.10398 | -81.11045 | 6270 ft | 246 kts | 339° |
| 2026-04-21 04:24 | 28.11957 | -81.11696 | 6196 ft | 229 kts | 339° |
| 2026-04-21 04:24 | 28.13456 | -81.12324 | 6126 ft | 234 kts | 339° |
| 2026-04-21 04:24 | 28.14955 | -81.12950 | 6014 ft | 225 kts | 339° |
| 2026-04-21 04:25 | 28.16328 | -81.13712 | 5946 ft | 220 kts | 319° |
| 2026-04-21 04:25 | 28.17105 | -81.15166 | 5771 ft | 222 kts | 280° |
| 2026-04-21 04:25 | 28.17070 | -81.16920 | 5547 ft | 224 kts | 267° |
| 2026-04-21 04:25 | 28.17237 | -81.18642 | 5297 ft | 218 kts | 295° |
| 2026-04-21 04:26 | 28.17977 | -81.20136 | 5061 ft | 218 kts | 300° |
| 2026-04-21 04:26 | 28.18671 | -81.21665 | 4815 ft | 218 kts | 297° |
| 2026-04-21 04:26 | 28.19335 | -81.23190 | 4574 ft | 217 kts | 297° |
| 2026-04-21 04:26 | 28.19988 | -81.24715 | 4334 ft | 216 kts | 297° |
| 2026-04-21 04:27 | 28.20637 | -81.26239 | 4122 ft | 210 kts | 298° |
| 2026-04-21 04:27 | 28.21502 | -81.27474 | 4011 ft | 194 kts | 326° |
| 2026-04-21 04:27 | 28.22700 | -81.28007 | 3797 ft | 185 kts | 352° |
| 2026-04-21 04:27 | 28.23963 | -81.28048 | 3547 ft | 179 kts | 359° |
| 2026-04-21 04:28 | 28.25173 | -81.28061 | 3325 ft | 170 kts | 359° |
| 2026-04-21 04:28 | 28.26308 | -81.28069 | 3105 ft | 152 kts | 359° |
| 2026-04-21 04:28 | 28.27281 | -81.28064 | 2929 ft | 132 kts | 359° |
| 2026-04-21 04:28 | 28.28202 | -81.28068 | 2751 ft | 133 kts | 359° |
| 2026-04-21 04:29 | 28.29120 | -81.28077 | 2577 ft | 132 kts | 359° |
| 2026-04-21 04:29 | 28.30039 | -81.28088 | 2402 ft | 131 kts | 359° |
| 2026-04-21 04:29 | 28.30947 | -81.28100 | 2229 ft | 131 kts | 359° |
| 2026-04-21 04:29 | 28.31862 | -81.28112 | 2055 ft | 131 kts | 359° |
| 2026-04-21 04:30 | 28.32766 | -81.28125 | 1886 ft | 130 kts | 359° |
| 2026-04-21 04:30 | 28.33667 | -81.28139 | 1711 ft | 130 kts | 359° |
| 2026-04-21 04:30 | 28.34566 | -81.28149 | 1550 ft | 129 kts | 359° |
| 2026-04-21 04:30 | 28.35457 | -81.28155 | 1408 ft | 128 kts | 0° |
| 2026-04-21 04:31 | 28.36350 | -81.28158 | 1222 ft | 128 kts | 360° |
| 2026-04-21 04:31 | 28.37250 | -81.28172 | 1023 ft | 129 kts | 359° |
| 2026-04-21 04:31 | 28.38143 | -81.28190 | 841 ft | 128 kts | 359° |
| 2026-04-21 04:31 | 28.39036 | -81.28207 | 681 ft | 127 kts | 0° |
| 2026-04-21 04:32 | 28.39910 | -81.28209 | 535 ft | 127 kts | 360° |
| 2026-04-21 04:32 | 28.40806 | -81.28222 | 361 ft | 127 kts | 360° |
| 2026-04-21 04:32 | 28.41679 | -81.28226 | 173 ft | 126 kts | 360° |
| 2026-04-21 04:32 | 28.42514 | -81.28239 | 88 ft | 106 kts | 360° |
| 2026-04-21 04:33 | 28.43066 | -81.28244 | 86 ft | 55 kts | 360° |
| 2026-04-21 04:33 | 28.43376 | -81.28249 | 88 ft | 35 kts | 357° |
| 2026-04-21 04:33 | 28.43529 | -81.28325 | 88 ft | 20 kts | 310° |
| 2026-04-21 04:33 | 28.43650 | -81.28374 | 88 ft | 16 kts | 0° |
| 2026-04-21 04:34 | 28.43752 | -81.28382 | 88 ft | 13 kts | 353° |
| 2026-04-21 04:34 | 28.43855 | -81.28384 | 88 ft | 18 kts | 329° |
| 2026-04-21 04:34 | 28.43874 | -81.28546 | 88 ft | 23 kts | 270° |
| 2026-04-21 04:34 | 28.43875 | -81.28759 | 88 ft | 30 kts | 272° |
| 2026-04-21 04:35 | 28.43871 | -81.29014 | 88 ft | 33 kts | 270° |
| 2026-04-21 04:35 | 28.43867 | -81.29219 | 88 ft | 18 kts | 259° |
| 2026-04-21 04:35 | 28.43763 | -81.29262 | 88 ft | 19 kts | 179° |
| 2026-04-21 04:35 | 28.43616 | -81.29262 | 91 ft | 18 kts | 181° |
| 2026-04-21 04:36 | 28.43552 | -81.29337 | 91 ft | 16 kts | 271° |
| 2026-04-21 04:36 | 28.43552 | -81.29464 | 91 ft | 17 kts | 269° |
| 2026-04-21 04:36 | 28.43550 | -81.29624 | 91 ft | 21 kts | 270° |
| 2026-04-21 04:36 | 28.43549 | -81.29797 | 91 ft | 20 kts | 269° |
| 2026-04-21 04:37 | 28.43622 | -81.29887 | 91 ft | 19 kts | 358° |
| 2026-04-21 04:37 | 28.43759 | -81.29918 | 91 ft | 19 kts | 326° |
| 2026-04-21 04:37 | 28.43828 | -81.30044 | 91 ft | 21 kts | 274° |
| 2026-04-21 04:37 | 28.43783 | -81.30175 | 91 ft | 13 kts | 233° |
| 2026-04-21 04:38 | 28.43729 | -81.30250 | 91 ft | 11 kts | 212° |
| 2026-04-21 04:38 | 28.43673 | -81.30240 | 91 ft | 7 kts | 176° |
| 2026-04-21 04:38 | 28.43620 | -81.30240 | 90 ft | 7 kts | 180° |
| 2026-04-21 04:38 | 28.43598 | -81.30240 | 90 ft | 0 kts | 180° |